Peetz, Colorado
Current Conditions -  °F | °C
As of 12:53 AM on Thursday 27 Nov 2014 (Local Time) from KSNY Reporting Station
Clear Clear  
Wind Chill: 11°   Ceiling: Unl
Heat Index: 21°   Visibility: 10mi
Dew Point: 18°   Wind: 9mph
Humidity: 88%   Direction: 210°SSW
Pressure: 30.24"   Gusts: NA
Location:  40.96°N, 103.11°W
Report Text: KSNY 270753Z AUTO 21008KT 10SM CLR M06/M08 A3024 RMK AO2 SLP281 T10611078
Loading
Personal Weather Stations






























Interactive Weather Map New forecast layout! Learn more

10-Day Weather Forecast

Advertisements
Track Severe Weather on mobile